Terminal Aerodrome Forecast
Issued by NWS

Home | Current Version | Previous Version | Text Only | Print | Product List | Glossary On
Versions: 1 2 3 4 5 6 7 8 9 10 11 12 13 14 15 16 17 18 19 20 21 22 23 24 25 26 27
000
FTUS41 KBUF 261700
TAFIAG
TAF
KIAG 261739Z 2618/2718 08008KT P6SM VCSH OVC025
     FM262000 07009KT 3SM -SHSN OVC020
     FM262200 03006KT 6SM BR BKN020
     FM270500 02004KT P6SM BKN025
     FM270700 VRB03KT P6SM BKN050
     FM271300 32004KT P6SM BKN070=

USA.gov is the U.S. government's official web portal to all federal, state and local government web resources and services.